Terminal Aerodrome Forecast
Issued by NWS Paducah, KY

Home | Current Version | Previous Version | Text Only | Print | Product List | Glossary On
Versions: 1 2 3 4 5 6 7 8 9 10 11 12 13 14 15 16 17 18 19 20 21 22 23 24 25
915
FTUS43 KPAH 280818 AAC
TAFPAH
TAF AMD
KPAH 280818Z 2808/2906 VRB03KT P6SM -RA SCT020 OVC120
      TEMPO 2809/2813 VRB03KT 1 1/2SM -SHRA BR SCT003 OVC010
     FM281500 25005KT P6SM BKN045=

USA.gov is the U.S. government's official web portal to all federal, state and local government web resources and services.